Johnny James — WYT8450 — position and weather

sailwx.info

Track history (hours):
 
Tides and Currents Weather Stations Pressure Air Temp Water Temp Dewpoint Dewpoint Depression Visibility Wind Speed Wind Dir Waves Ship Positions

Johnny James

Owner: CALLAIS & SONS INC, CUT OFF, LA. More information available from US FCC via Universal Licensing System and Coast Guard Vessel Documentation Center.

Last reported at 2016-Sep-18 00:14 UTC. Time now 2016-Sep-29 15:17 UTC.
Position N 29°32' W 094°54'.
Warning: this ship's position is 11 days out of date.

Length 20 m.

Type: Towing. MMSI: 367005220.

Date/timePositionNaut miles runAvg speedWind from/ knotsBaromVisibWave heightAir tempDewpointWater temp
2016-Sep-18 00:14N 29°32' W 094°54'9 5.6
2016-Sep-17 22:33N 29°41' W 094°59'4 3.7
2016-Sep-17 21:33N 29°44' W 095°01'0 0.2
2016-Sep-17 20:33N 29°44' W 095°01'0 0.0
2016-Sep-17 19:16N 29°44' W 095°01'0 0.0
2016-Sep-17 13:33N 29°44' W 095°01'0 0.1
2016-Sep-17 12:32N 29°44' W 095°01'0 0.0
2016-Sep-17 10:33N 29°44' W 095°01'0 0.0
2016-Sep-17 09:32N 29°44' W 095°01'0 0.0
2016-Sep-17 08:32N 29°44' W 095°01'0 0.0
2016-Sep-17 07:32N 29°44' W 095°01'0 0.0
2016-Sep-17 05:30N 29°44' W 095°01'0 0.0
2016-Sep-17 04:29N 29°44' W 095°01'0 0.0
2016-Sep-17 00:30N 29°44' W 095°01'0 0.0
2016-Sep-16 09:33N 29°44' W 095°01'0 0.0
2016-Sep-15 22:11N 29°44' W 095°01'3 4.2
2016-Sep-15 21:33N 29°45' W 095°04'2 1.4
2016-Sep-15 20:14N 29°47' W 095°04'0 0.0
2016-Sep-15 12:33N 29°47' W 095°04'0 0.0
2016-Sep-15 11:32N 29°47' W 095°04'0 0.0
2016-Sep-15 03:28N 29°47' W 095°04'1 0.1
2016-Sep-14 17:24N 29°46' W 095°05'4 4.8
2016-Sep-14 16:33N 29°43' W 095°01'7 2.2
2016-Sep-14 13:33N 29°37' W 095°01'0 0.2
2016-Sep-14 12:33N 29°37' W 095°01'0 0.0
2016-Sep-14 10:33N 29°37' W 095°01'0 0.0
2016-Sep-14 09:33N 29°37' W 095°01'0 0.0
2016-Sep-14 08:33N 29°37' W 095°01'0 0.0
2016-Sep-14 07:33N 29°37' W 095°01'0 0.0
2016-Sep-14 06:33N 29°37' W 095°01'0 0.0
2016-Sep-14 03:34N 29°37' W 095°01'0 0.0
2016-Sep-13 22:33N 29°37' W 095°01'0 0.0
2016-Sep-13 20:33N 29°37' W 095°01'0 0.0
2016-Sep-13 18:33N 29°37' W 095°01'0 0.0
2016-Sep-13 17:33N 29°37' W 095°01'0 0.2
2016-Sep-13 16:33N 29°37' W 095°02'0 0.0
2016-Sep-13 11:32N 29°37' W 095°02'0 0.1
2016-Sep-13 09:33N 29°37' W 095°01'0 0.0
2016-Sep-13 07:33N 29°37' W 095°01'0 0.2
2016-Sep-13 06:33N 29°37' W 095°01'0 0.0
2016-Sep-13 04:33N 29°37' W 095°01'0 0.1
2016-Sep-13 02:33N 29°37' W 095°01'5 1.8
2016-Sep-12 23:33N 29°42' W 094°60'6 2.9
2016-Sep-12 21:22N 29°45' W 095°06'0 0.1
2016-Sep-12 14:33N 29°46' W 095°06'0 0.0
2016-Sep-11 11:23N 29°46' W 095°05'4 4.3
2016-Sep-11 10:30N 29°44' W 095°02'7 3.6
2016-Sep-11 08:33N 29°37' W 095°00'1 1.1
2016-Sep-11 07:30N 29°37' W 095°02'9 2.4
2016-Sep-11 03:31N 29°45' W 095°06'0 0.1
2016-Sep-11 02:28N 29°46' W 095°06'0 0.0
2016-Sep-10 23:29N 29°46' W 095°06'0 0.0
2016-Sep-10 22:22N 29°46' W 095°06'  
Track history (hours):
 
Tides and Currents Weather Stations Pressure Air Temp Water Temp Dewpoint Dewpoint Depression Visibility Wind Speed Wind Dir Waves Ship Positions

Johnny James

Owner: CALLAIS & SONS INC, CUT OFF, LA. More information available from US FCC via Universal Licensing System and Coast Guard Vessel Documentation Center.

Last reported at 2016-Sep-18 00:14 UTC. Time now 2016-Sep-29 15:17 UTC.
Position N 29°32' W 094°54'.
Warning: this ship's position is 11 days out of date.

Length 20 m.

Type: Towing. MMSI: 367005220.

Date/timePositionNaut miles runAvg speedWind from/ knotsBaromVisibWave heightAir tempDewpointWater temp
2016-Sep-18 00:14N 29°32' W 094°54'9 5.6
2016-Sep-17 22:33N 29°41' W 094°59'4 3.7
2016-Sep-17 21:33N 29°44' W 095°01'0 0.2
2016-Sep-17 20:33N 29°44' W 095°01'0 0.0
2016-Sep-17 19:16N 29°44' W 095°01'0 0.0
2016-Sep-17 13:33N 29°44' W 095°01'0 0.1
2016-Sep-17 12:32N 29°44' W 095°01'0 0.0
2016-Sep-17 10:33N 29°44' W 095°01'0 0.0
2016-Sep-17 09:32N 29°44' W 095°01'0 0.0
2016-Sep-17 08:32N 29°44' W 095°01'0 0.0
2016-Sep-17 07:32N 29°44' W 095°01'0 0.0
2016-Sep-17 05:30N 29°44' W 095°01'0 0.0
2016-Sep-17 04:29N 29°44' W 095°01'0 0.0
2016-Sep-17 00:30N 29°44' W 095°01'0 0.0
2016-Sep-16 09:33N 29°44' W 095°01'0 0.0
2016-Sep-15 22:11N 29°44' W 095°01'3 4.2
2016-Sep-15 21:33N 29°45' W 095°04'2 1.4
2016-Sep-15 20:14N 29°47' W 095°04'0 0.0
2016-Sep-15 12:33N 29°47' W 095°04'0 0.0
2016-Sep-15 11:32N 29°47' W 095°04'0 0.0
2016-Sep-15 03:28N 29°47' W 095°04'1 0.1
2016-Sep-14 17:24N 29°46' W 095°05'4 4.8
2016-Sep-14 16:33N 29°43' W 095°01'7 2.2
2016-Sep-14 13:33N 29°37' W 095°01'0 0.2
2016-Sep-14 12:33N 29°37' W 095°01'0 0.0
2016-Sep-14 10:33N 29°37' W 095°01'0 0.0
2016-Sep-14 09:33N 29°37' W 095°01'0 0.0
2016-Sep-14 08:33N 29°37' W 095°01'0 0.0
2016-Sep-14 07:33N 29°37' W 095°01'0 0.0
2016-Sep-14 06:33N 29°37' W 095°01'0 0.0
2016-Sep-14 03:34N 29°37' W 095°01'0 0.0
2016-Sep-13 22:33N 29°37' W 095°01'0 0.0
2016-Sep-13 20:33N 29°37' W 095°01'0 0.0
2016-Sep-13 18:33N 29°37' W 095°01'0 0.0
2016-Sep-13 17:33N 29°37' W 095°01'0 0.2
2016-Sep-13 16:33N 29°37' W 095°02'0 0.0
2016-Sep-13 11:32N 29°37' W 095°02'0 0.1
2016-Sep-13 09:33N 29°37' W 095°01'0 0.0
2016-Sep-13 07:33N 29°37' W 095°01'0 0.2
2016-Sep-13 06:33N 29°37' W 095°01'0 0.0
2016-Sep-13 04:33N 29°37' W 095°01'0 0.1
2016-Sep-13 02:33N 29°37' W 095°01'5 1.8
2016-Sep-12 23:33N 29°42' W 094°60'6 2.9
2016-Sep-12 21:22N 29°45' W 095°06'0 0.1
2016-Sep-12 14:33N 29°46' W 095°06'0 0.0
2016-Sep-11 11:23N 29°46' W 095°05'4 4.3
2016-Sep-11 10:30N 29°44' W 095°02'7 3.6
2016-Sep-11 08:33N 29°37' W 095°00'1 1.1
2016-Sep-11 07:30N 29°37' W 095°02'9 2.4
2016-Sep-11 03:31N 29°45' W 095°06'0 0.1
2016-Sep-11 02:28N 29°46' W 095°06'0 0.0
2016-Sep-10 23:29N 29°46' W 095°06'0 0.0
2016-Sep-10 22:22N 29°46' W 095°06'  

Dump ship's entire track history